Time;durP1;ratioP1;P1;durP2;ratioP2;P2;SDS_P1;SDS_P2;PMS_P1;PMS_P2;Temp;Humidity;BMP_temperature;BMP_pressure;BME280_temperature;BME280_humidity;BME280_pressure;Samples;Min_cycle;Max_cycle;Signal;HPM_P1;HPM_P2
2022/06/11 00:01:21;;;;;;;0.00;0.00;;;16.40;99.90;;;;;;5097866;28;20442;-95
2022/06/11 00:03:49;;;;;;;0.00;0.00;;;16.50;99.90;;;;;;5076681;28;20806;-95
2022/06/11 00:06:16;;;;;;;0.10;0.10;;;16.40;99.90;;;;;;5091612;28;20447;-94
2022/06/11 00:08:43;;;;;;;0.00;0.00;;;16.40;99.90;;;;;;5083625;28;20492;-94
2022/06/11 00:11:09;;;;;;;0.00;0.00;;;16.60;99.90;;;;;;5094597;28;20483;-94
2022/06/11 00:13:35;;;;;;;0.10;0.10;;;16.60;99.90;;;;;;5093057;28;20471;-94
2022/06/11 00:16:01;;;;;;;0.00;0.00;;;16.60;99.90;;;;;;5087916;28;20459;-94
2022/06/11 00:18:27;;;;;;;0.00;0.00;;;16.60;99.90;;;;;;5089998;28;20195;-94
2022/06/11 00:20:53;;;;;;;0.00;0.00;;;16.50;99.90;;;;;;5092218;28;20458;-94
2022/06/11 00:23:19;;;;;;;0.00;0.00;;;16.50;99.90;;;;;;5072719;28;20189;-93
2022/06/11 00:25:44;;;;;;;0.00;0.00;;;16.50;99.90;;;;;;5090650;28;20173;-95
2022/06/11 00:28:10;;;;;;;0.00;0.00;;;16.50;99.90;;;;;;5083766;28;20450;-94
2022/06/11 00:30:36;;;;;;;0.00;0.00;;;16.50;99.90;;;;;;5091203;28;20213;-95
2022/06/11 00:33:06;;;;;;;0.00;0.00;;;16.50;99.90;;;;;;5091014;28;20463;-95
2022/06/11 00:35:32;;;;;;;0.00;0.00;;;16.40;99.90;;;;;;5075065;28;20188;-94
2022/06/11 00:37:58;;;;;;;0.00;0.00;;;16.40;99.90;;;;;;5089817;28;20442;-95
2022/06/11 00:40:26;;;;;;;0.00;0.00;;;16.40;99.90;;;;;;5071184;28;20468;-96
2022/06/11 00:42:51;;;;;;;0.10;0.10;;;16.40;99.90;;;;;;5092632;28;20180;-95
2022/06/11 00:45:42;;;;;;;0.00;0.00;;;16.30;99.90;;;;;;5092943;28;20455;-95
2022/06/11 00:48:19;;;;;;;0.00;0.00;;;16.40;99.90;;;;;;5085542;28;20181;-95
2022/06/11 00:50:59;;;;;;;0.10;0.10;;;16.30;99.90;;;;;;5095652;28;20486;-94
2022/06/11 00:53:39;;;;;;;0.00;0.00;;;16.40;99.90;;;;;;5087988;28;20444;-93
2022/06/11 00:56:11;;;;;;;0.00;0.00;;;16.30;99.90;;;;;;5084796;28;20958;-93
2022/06/11 00:58:43;;;;;;;0.10;0.10;;;16.30;99.90;;;;;;5086922;28;20447;-94
2022/06/11 01:01:08;;;;;;;0.00;0.00;;;16.30;99.90;;;;;;5067601;28;20959;-94
2022/06/11 01:03:38;;;;;;;0.00;0.00;;;16.50;99.90;;;;;;5089242;28;20438;-95
2022/06/11 01:06:13;;;;;;;0.00;0.00;;;16.50;99.90;;;;;;5089320;28;20188;-94
2022/06/11 01:08:57;;;;;;;0.00;0.00;;;16.40;99.90;;;;;;5087054;28;20434;-94
2022/06/11 01:11:40;;;;;;;0.10;0.10;;;16.40;99.90;;;;;;5086135;28;20546;-96
2022/06/11 01:14:46;;;;;;;0.00;0.00;;;16.30;99.90;;;;;;5092923;28;20431;-94
2022/06/11 01:17:34;;;;;;;0.10;0.10;;;16.30;99.90;;;;;;5088529;28;20443;-93
2022/06/11 01:20:18;;;;;;;0.00;0.00;;;16.30;99.90;;;;;;5085450;28;21050;-94
2022/06/11 01:23:14;;;;;;;0.00;0.00;;;16.30;99.90;;;;;;5091071;28;20443;-94
2022/06/11 01:25:57;;;;;;;0.00;0.00;;;16.20;99.90;;;;;;5080235;28;20942;-93
2022/06/11 01:28:53;;;;;;;0.10;0.10;;;16.30;99.90;;;;;;5091245;28;20450;-95
2022/06/11 01:31:26;;;;;;;0.00;0.00;;;16.20;99.90;;;;;;5086639;28;20475;-94
2022/06/11 01:34:08;;;;;;;0.00;0.00;;;16.30;99.90;;;;;;5079556;28;21218;-93
2022/06/11 01:36:41;;;;;;;0.00;0.00;;;16.30;99.90;;;;;;5076299;28;20461;-94
2022/06/11 01:39:38;;;;;;;0.00;0.00;;;16.20;99.90;;;;;;5082270;28;20439;-94
2022/06/11 01:42:12;;;;;;;0.00;0.00;;;16.20;99.90;;;;;;5093453;28;20446;-93
2022/06/11 01:44:40;;;;;;;0.00;0.00;;;16.20;99.90;;;;;;5093025;28;20479;-94
2022/06/11 01:47:07;;;;;;;0.10;0.10;;;16.10;99.90;;;;;;5067306;28;20432;-93
2022/06/11 01:49:37;;;;;;;0.00;0.00;;;16.00;99.90;;;;;;5084063;28;20511;-94
2022/06/11 01:52:09;;;;;;;0.10;0.10;;;16.00;99.90;;;;;;5084732;28;20443;-94
2022/06/11 01:54:43;;;;;;;0.20;0.20;;;16.00;99.90;;;;;;5091029;28;20430;-94
2022/06/11 01:57:21;;;;;;;0.10;0.10;;;15.90;99.90;;;;;;5091293;28;20431;-96
2022/06/11 01:59:57;;;;;;;0.10;0.10;;;15.90;99.90;;;;;;5088341;28;20443;-95
2022/06/11 02:02:41;;;;;;;0.10;0.10;;;15.80;99.90;;;;;;5081946;28;20447;-94
2022/06/11 02:05:24;;;;;;;0.10;0.10;;;15.80;99.90;;;;;;5085457;28;20442;-93
2022/06/11 02:08:20;;;;;;;0.10;0.10;;;15.80;99.90;;;;;;5090372;28;20527;-94
2022/06/11 02:10:56;;;;;;;0.10;0.10;;;15.80;99.90;;;;;;5088176;28;20505;-93
2022/06/11 02:13:41;;;;;;;0.10;0.10;;;15.80;99.90;;;;;;5081203;28;20432;-93
2022/06/11 02:16:35;;;;;;;0.10;0.10;;;15.60;99.90;;;;;;5088710;28;20442;-96
2022/06/11 02:19:08;;;;;;;0.10;0.10;;;15.60;99.90;;;;;;5081493;28;20459;-94
2022/06/11 02:21:40;;;;;;;0.10;0.10;;;15.60;99.90;;;;;;5079545;28;20439;-93
2022/06/11 02:24:11;;;;;;;0.00;0.00;;;15.60;99.90;;;;;;5087879;28;20431;-94
2022/06/11 02:26:41;;;;;;;0.10;0.10;;;15.60;99.90;;;;;;5091591;28;20454;-94
2022/06/11 02:29:09;;;;;;;0.10;0.10;;;15.50;99.90;;;;;;5092518;28;20439;-95
2022/06/11 02:31:44;;;;;;;0.10;0.10;;;15.50;99.90;;;;;;5077912;28;21080;-96
2022/06/11 02:34:13;;;;;;;0.20;0.20;;;15.70;99.90;;;;;;5081822;28;20432;-96
2022/06/11 02:37:06;;;;;;;0.10;0.10;;;15.70;99.90;;;;;;5086260;28;20539;-95
2022/06/11 02:39:38;;;;;;;0.10;0.10;;;15.70;99.90;;;;;;5085496;28;20432;-95
2022/06/11 02:42:06;;;;;;;0.10;0.10;;;15.60;99.90;;;;;;5072065;28;20850;-95
2022/06/11 02:44:32;;;;;;;0.10;0.10;;;15.60;99.90;;;;;;5083948;28;20432;-95
2022/06/11 02:46:57;;;;;;;0.10;0.10;;;15.60;99.90;;;;;;5085559;28;20464;-96
2022/06/11 02:49:27;;;;;;;0.10;0.10;;;15.60;99.90;;;;;;5085505;28;20189;-96
2022/06/11 02:52:00;;;;;;;0.10;0.10;;;15.80;99.90;;;;;;5092400;28;20185;-96
2022/06/11 02:54:25;;;;;;;0.10;0.10;;;15.80;99.90;;;;;;5092384;28;20491;-96
2022/06/11 02:56:53;;;;;;;0.10;0.10;;;15.90;99.90;;;;;;5093580;28;20819;-96
2022/06/11 02:59:20;;;;;;;0.10;0.10;;;15.80;99.90;;;;;;5095901;28;20204;-96
2022/06/11 03:01:46;;;;;;;0.10;0.10;;;15.80;99.90;;;;;;5089933;28;20918;-95
2022/06/11 03:04:12;;;;;;;0.00;0.00;;;15.60;99.90;;;;;;5084096;28;20489;-94
2022/06/11 03:06:41;;;;;;;0.10;0.10;;;15.50;99.90;;;;;;5096507;28;20219;-95
2022/06/11 03:09:07;;;;;;;0.00;0.00;;;15.40;99.90;;;;;;5096081;28;20476;-95
2022/06/11 03:11:33;;;;;;;0.10;0.10;;;15.50;99.90;;;;;;5090803;28;20505;-95
2022/06/11 03:13:59;;;;;;;0.10;0.10;;;15.50;99.90;;;;;;5101484;28;20435;-95
2022/06/11 03:16:25;;;;;;;0.10;0.10;;;15.50;99.90;;;;;;5094825;28;20178;-95
2022/06/11 03:18:50;;;;;;;0.10;0.10;;;15.40;99.90;;;;;;5095384;28;20494;-95
2022/06/11 03:21:16;;;;;;;0.00;0.00;;;15.30;99.90;;;;;;5096129;28;20194;-95
2022/06/11 03:23:43;;;;;;;0.10;0.10;;;15.30;99.90;;;;;;5096356;28;20173;-95
2022/06/11 03:26:08;;;;;;;0.10;0.10;;;15.30;99.90;;;;;;5096513;28;20434;-95
2022/06/11 03:28:35;;;;;;;0.10;0.10;;;15.40;99.90;;;;;;5094795;28;20435;-95
2022/06/11 03:31:03;;;;;;;0.00;0.00;;;15.50;99.90;;;;;;5086037;28;20221;-95
2022/06/11 03:33:28;;;;;;;0.10;0.10;;;15.60;99.90;;;;;;5086336;28;20999;-95
2022/06/11 03:35:54;;;;;;;0.10;0.10;;;15.70;99.90;;;;;;5071196;28;20468;-94
2022/06/11 03:38:20;;;;;;;0.10;0.10;;;15.60;99.90;;;;;;5084500;28;20177;-94
2022/06/11 03:40:46;;;;;;;0.10;0.10;;;15.60;99.90;;;;;;5095190;28;20189;-96
2022/06/11 03:43:12;;;;;;;0.10;0.10;;;15.70;99.90;;;;;;5083029;28;20443;-92
2022/06/11 03:45:38;;;;;;;0.10;0.10;;;15.70;99.90;;;;;;5090616;28;20444;-95
2022/06/11 03:48:04;;;;;;;0.10;0.10;;;15.70;99.90;;;;;;5091224;28;20609;-96
2022/06/11 03:50:34;;;;;;;0.10;0.10;;;15.70;99.90;;;;;;5091510;28;20221;-95
2022/06/11 03:53:01;;;;;;;0.10;0.10;;;15.70;99.90;;;;;;5094910;28;20492;-94
2022/06/11 03:55:27;;;;;;;0.10;0.10;;;15.70;99.90;;;;;;5094026;28;20422;-94
2022/06/11 03:57:53;;;;;;;0.00;0.00;;;15.70;99.90;;;;;;5090266;28;20526;-95
2022/06/11 04:03:10;;;;;;;0.00;0.00;;;15.70;99.90;;;;;;5085467;28;20439;-94
2022/06/11 04:05:37;;;;;;;0.00;0.00;;;15.70;99.90;;;;;;5081033;28;20451;-94
2022/06/11 04:08:03;;;;;;;0.10;0.10;;;15.70;99.90;;;;;;5092625;28;20526;-94
2022/06/11 04:10:28;;;;;;;0.00;0.00;;;15.70;99.90;;;;;;5093359;28;20563;-94
2022/06/11 04:12:54;;;;;;;0.10;0.10;;;15.80;99.90;;;;;;5091629;28;20443;-94
2022/06/11 04:15:20;;;;;;;0.10;0.10;;;15.80;99.90;;;;;;5089969;28;20593;-95
2022/06/11 04:17:46;;;;;;;0.00;0.00;;;15.80;99.90;;;;;;5087403;28;20189;-95
2022/06/11 04:20:14;;;;;;;0.10;0.10;;;15.80;99.90;;;;;;5062878;28;22485;-95
2022/06/11 04:22:41;;;;;;;0.00;0.00;;;15.80;99.90;;;;;;5090830;28;20204;-95
2022/06/11 04:25:07;;;;;;;0.10;0.10;;;15.90;99.90;;;;;;5091256;28;21019;-95
2022/06/11 04:27:32;;;;;;;0.10;0.10;;;15.90;99.90;;;;;;5086687;28;20447;-95
2022/06/11 04:29:59;;;;;;;0.00;0.00;;;16.00;99.90;;;;;;5084422;28;20499;-96
2022/06/11 04:32:27;;;;;;;0.07;0.07;;;16.00;99.90;;;;;;5086663;28;20277;-94
2022/06/11 04:34:53;;;;;;;0.00;0.00;;;16.00;99.90;;;;;;5084752;28;20455;-94
2022/06/11 04:37:21;;;;;;;0.10;0.10;;;16.00;99.90;;;;;;5089952;28;20945;-96
2022/06/11 04:39:53;;;;;;;0.00;0.00;;;16.10;99.90;;;;;;5090862;28;20953;-96
2022/06/11 04:42:20;;;;;;;0.10;0.10;;;16.10;99.90;;;;;;5080846;28;20446;-96
2022/06/11 04:44:45;;;;;;;0.00;0.00;;;16.10;99.90;;;;;;5089512;28;20461;-94
2022/06/11 04:47:13;;;;;;;0.00;0.00;;;16.10;99.90;;;;;;5076360;28;20950;-93
2022/06/11 04:49:39;;;;;;;0.00;0.00;;;16.20;99.90;;;;;;5092843;28;20197;-94
2022/06/11 04:52:05;;;;;;;0.00;0.00;;;16.20;99.90;;;;;;5094175;28;20833;-96
2022/06/11 04:54:31;;;;;;;0.10;0.10;;;16.30;99.90;;;;;;5092583;28;20182;-95
2022/06/11 04:56:57;;;;;;;0.10;0.10;;;16.30;99.90;;;;;;5095266;28;20516;-96
2022/06/11 04:59:22;;;;;;;0.00;0.00;;;16.30;99.90;;;;;;5090668;28;20508;-94
2022/06/11 05:01:48;;;;;;;0.10;0.10;;;16.40;99.90;;;;;;5090426;28;20181;-95
2022/06/11 05:04:15;;;;;;;0.00;0.00;;;16.50;99.90;;;;;;5086994;28;20192;-95
2022/06/11 05:06:45;;;;;;;0.00;0.00;;;16.50;99.90;;;;;;5084874;28;20443;-90
2022/06/11 05:09:15;;;;;;;0.10;0.10;;;16.60;99.90;;;;;;5087004;28;20435;-93
2022/06/11 05:11:41;;;;;;;0.10;0.10;;;16.70;99.90;;;;;;5071341;28;20535;-92
2022/06/11 05:14:07;;;;;;;0.00;0.00;;;16.70;99.90;;;;;;5089579;28;20419;-94
2022/06/11 05:16:34;;;;;;;0.00;0.00;;;16.80;99.90;;;;;;5091296;28;20500;-94
2022/06/11 05:19:00;;;;;;;0.00;0.00;;;17.00;99.90;;;;;;5085694;28;20221;-95
2022/06/11 05:21:26;;;;;;;0.00;0.00;;;17.10;99.90;;;;;;5094063;28;20443;-96
2022/06/11 05:23:51;;;;;;;0.00;0.00;;;17.20;99.90;;;;;;5093774;28;20180;-95
2022/06/11 05:26:20;;;;;;;0.00;0.00;;;17.20;99.90;;;;;;5086390;28;20454;-96
2022/06/11 05:28:47;;;;;;;0.00;0.00;;;17.40;99.90;;;;;;5090706;28;20205;-96
2022/06/11 05:31:12;;;;;;;0.00;0.00;;;17.40;99.90;;;;;;5092121;28;20471;-94
2022/06/11 05:33:38;;;;;;;0.00;0.00;;;17.60;99.90;;;;;;5094177;28;20442;-93
2022/06/11 05:36:05;;;;;;;0.00;0.00;;;17.70;99.90;;;;;;5070753;28;20184;-93
2022/06/11 05:38:31;;;;;;;0.00;0.00;;;17.80;99.90;;;;;;5091035;28;20511;-93
2022/06/11 05:40:58;;;;;;;0.00;0.00;;;17.90;99.90;;;;;;5084742;28;20431;-91
2022/06/11 05:43:24;;;;;;;0.00;0.00;;;18.10;99.90;;;;;;5085553;28;20515;-91
2022/06/11 05:46:10;;;;;;;0.10;0.10;;;18.00;99.90;;;;;;5091408;28;20434;-94
2022/06/11 05:48:43;;;;;;;0.00;0.00;;;17.90;99.90;;;;;;5092368;28;20463;-95
2022/06/11 05:51:14;;;;;;;0.00;0.00;;;17.80;99.90;;;;;;5093263;28;20481;-94
2022/06/11 05:53:39;;;;;;;0.00;0.00;;;17.80;99.90;;;;;;5073573;28;20435;-93
2022/06/11 05:56:05;;;;;;;0.00;0.00;;;17.90;99.90;;;;;;5071271;28;21012;-94
2022/06/11 05:58:44;;;;;;;0.00;0.00;;;18.00;99.90;;;;;;5089893;28;20173;-93
2022/06/11 06:01:13;;;;;;;0.00;0.00;;;18.10;99.90;;;;;;5093004;28;20451;-94
2022/06/11 06:03:38;;;;;;;0.00;0.00;;;18.10;99.90;;;;;;5084927;28;21143;-92
2022/06/11 06:06:04;;;;;;;0.00;0.00;;;18.10;99.90;;;;;;5086831;28;20474;-90
2022/06/11 06:08:29;;;;;;;0.00;0.00;;;18.20;99.90;;;;;;5091045;28;20220;-93
2022/06/11 06:10:55;;;;;;;0.00;0.00;;;18.30;99.90;;;;;;5070535;28;20716;-94
2022/06/11 06:16:05;;;;;;;0.00;0.00;;;18.40;99.90;;;;;;5082638;28;20674;-95
2022/06/11 06:18:30;;;;;;;0.00;0.00;;;18.50;99.90;;;;;;5091143;28;20432;-95
2022/06/11 06:20:56;;;;;;;0.00;0.00;;;18.50;99.90;;;;;;5082957;28;20297;-94
2022/06/11 06:23:21;;;;;;;0.00;0.00;;;18.60;99.90;;;;;;5087185;28;20200;-93
2022/06/11 06:25:49;;;;;;;0.00;0.00;;;18.50;99.90;;;;;;5091990;28;20196;-95
2022/06/11 06:28:15;;;;;;;0.00;0.00;;;18.50;99.90;;;;;;5090844;28;20185;-93
2022/06/11 06:30:40;;;;;;;0.00;0.00;;;18.50;99.90;;;;;;5096703;28;20520;-95
2022/06/11 06:33:06;;;;;;;0.00;0.00;;;18.50;99.90;;;;;;5098776;28;20185;-94
2022/06/11 06:35:32;;;;;;;0.00;0.00;;;18.50;99.90;;;;;;5089984;28;20182;-95
2022/06/11 06:37:57;;;;;;;0.00;0.00;;;18.50;99.90;;;;;;5093121;28;20443;-94
2022/06/11 06:40:23;;;;;;;0.00;0.00;;;18.60;99.90;;;;;;5085661;28;20287;-92
2022/06/11 06:42:48;;;;;;;0.00;0.00;;;18.60;99.90;;;;;;5078087;28;20238;-95
2022/06/11 06:45:15;;;;;;;0.00;0.00;;;18.60;99.90;;;;;;5092131;28;20200;-96
2022/06/11 06:47:41;;;;;;;0.00;0.00;;;18.70;99.90;;;;;;5092049;28;20185;-92
2022/06/11 06:50:07;;;;;;;0.00;0.00;;;18.70;99.90;;;;;;5096219;28;20466;-93
2022/06/11 06:52:33;;;;;;;0.00;0.00;;;18.70;99.90;;;;;;5092386;28;20204;-92
2022/06/11 06:54:58;;;;;;;0.00;0.00;;;18.70;99.90;;;;;;5087016;28;20451;-90
2022/06/11 06:57:24;;;;;;;0.00;0.00;;;18.80;99.90;;;;;;5087034;28;20189;-90
2022/06/11 06:59:49;;;;;;;0.00;0.00;;;18.70;99.90;;;;;;5095454;28;20196;-92
2022/06/11 07:02:14;;;;;;;0.00;0.00;;;18.70;99.90;;;;;;5086607;28;20185;-95
2022/06/11 07:04:40;;;;;;;0.00;0.00;;;18.70;99.90;;;;;;5093285;28;20189;-94
2022/06/11 07:07:06;;;;;;;0.00;0.00;;;18.70;99.90;;;;;;5075918;28;20264;-94
2022/06/11 07:09:32;;;;;;;0.00;0.00;;;18.70;99.90;;;;;;5088507;28;20220;-93
2022/06/11 07:11:58;;;;;;;0.00;0.00;;;18.80;99.90;;;;;;5083745;28;20193;-93
2022/06/11 07:14:23;;;;;;;0.00;0.00;;;18.80;99.90;;;;;;5073545;28;20435;-92
2022/06/11 07:16:52;;;;;;;0.00;0.00;;;19.00;99.90;;;;;;5091446;28;20185;-90
2022/06/11 07:19:26;;;;;;;0.00;0.00;;;19.10;99.90;;;;;;5087556;28;20213;-90
2022/06/11 07:21:55;;;;;;;0.00;0.00;;;18.90;99.90;;;;;;5089427;28;20441;-89
2022/06/11 07:24:27;;;;;;;0.00;0.00;;;18.80;99.90;;;;;;5088924;28;20507;-90
2022/06/11 07:26:57;;;;;;;0.00;0.00;;;18.90;99.90;;;;;;5089756;28;20426;-91
2022/06/11 07:29:31;;;;;;;0.00;0.00;;;19.00;99.90;;;;;;5079021;28;20915;-92
2022/06/11 07:32:02;;;;;;;0.00;0.00;;;19.30;99.90;;;;;;5081925;28;21016;-93
2022/06/11 07:34:28;;;;;;;0.00;0.00;;;19.30;99.90;;;;;;5084073;28;20435;-91
2022/06/11 07:36:56;;;;;;;0.00;0.00;;;19.40;99.90;;;;;;5087197;28;20496;-90
2022/06/11 07:39:21;;;;;;;0.00;0.00;;;19.30;99.90;;;;;;5091191;28;20431;-91
2022/06/11 07:41:47;;;;;;;0.00;0.00;;;19.50;99.90;;;;;;5091297;28;20443;-87
2022/06/11 07:44:12;;;;;;;0.00;0.00;;;19.60;99.90;;;;;;5081920;28;20184;-86
2022/06/11 07:46:38;;;;;;;0.00;0.00;;;19.80;99.90;;;;;;5083605;28;20207;-90
2022/06/11 07:49:03;;;;;;;0.00;0.00;;;19.90;99.90;;;;;;5083281;28;20193;-89
2022/06/11 07:51:29;;;;;;;0.00;0.00;;;20.00;99.90;;;;;;5089044;28;20216;-89
2022/06/11 07:53:54;;;;;;;0.00;0.00;;;20.20;99.90;;;;;;5081322;28;20654;-88
2022/06/11 07:56:20;;;;;;;0.00;0.00;;;20.30;99.90;;;;;;5090755;28;20586;-89
2022/06/11 07:58:46;;;;;;;0.00;0.00;;;20.50;99.90;;;;;;5087142;28;20605;-89
2022/06/11 08:01:12;;;;;;;0.10;0.10;;;20.40;99.90;;;;;;5090834;28;20185;-89
2022/06/11 08:03:38;;;;;;;0.00;0.00;;;20.70;99.90;;;;;;5078548;28;20793;-88
2022/06/11 08:06:06;;;;;;;0.00;0.00;;;20.80;99.90;;;;;;5091805;28;20211;-87
2022/06/11 08:08:32;;;;;;;0.10;0.10;;;21.00;99.90;;;;;;5086815;28;20440;-89
2022/06/11 08:10:59;;;;;;;0.10;0.10;;;20.90;99.90;;;;;;5090558;28;20479;-90
2022/06/11 08:13:25;;;;;;;0.00;0.00;;;20.60;99.90;;;;;;5088494;28;20446;-91
2022/06/11 08:15:52;;;;;;;0.10;0.10;;;20.80;99.90;;;;;;5090967;28;20447;-92
2022/06/11 08:18:19;;;;;;;0.10;0.10;;;21.00;99.90;;;;;;5075777;28;20419;-90
2022/06/11 08:20:46;;;;;;;0.10;0.10;;;21.40;99.90;;;;;;5084431;28;20990;-90
2022/06/11 08:23:12;;;;;;;0.00;0.00;;;21.10;99.90;;;;;;5090185;28;21045;-90
2022/06/11 08:25:38;;;;;;;0.00;0.00;;;20.80;99.90;;;;;;5089894;28;20779;-88
2022/06/11 08:28:04;;;;;;;0.00;0.00;;;21.00;99.90;;;;;;5090307;28;20464;-91
2022/06/11 08:30:32;;;;;;;0.00;0.00;;;21.00;99.90;;;;;;5067170;28;20278;-91
2022/06/11 08:32:58;;;;;;;0.00;0.00;;;20.70;99.90;;;;;;5058936;28;20440;-89
2022/06/11 08:35:26;;;;;;;0.10;0.10;;;20.60;99.90;;;;;;5067775;28;20788;-89
2022/06/11 08:37:52;;;;;;;0.10;0.10;;;21.00;99.90;;;;;;5086509;28;20446;-90
2022/06/11 08:40:25;;;;;;;0.00;0.00;;;21.20;99.90;;;;;;5088983;28;20484;-92
2022/06/11 08:42:59;;;;;;;0.00;0.00;;;21.40;99.90;;;;;;5070539;28;20434;-91
2022/06/11 08:45:38;;;;;;;0.10;0.10;;;21.80;99.90;;;;;;5077631;28;20454;-90
2022/06/11 08:48:15;;;;;;;0.10;0.10;;;21.90;99.90;;;;;;5088195;28;20458;-93
2022/06/11 08:50:50;;;;;;;0.10;0.10;;;21.60;99.90;;;;;;5062135;28;20515;-89
2022/06/11 08:53:16;;;;;;;0.07;0.07;;;21.60;99.90;;;;;;5087447;28;20453;-88
2022/06/11 08:55:42;;;;;;;0.10;0.10;;;21.30;99.90;;;;;;5087399;28;20895;-88
2022/06/11 08:58:44;;;;;;;0.10;0.10;;;21.10;99.90;;;;;;5088203;28;20454;-90
2022/06/11 09:01:25;;;;;;;0.10;0.10;;;21.10;99.90;;;;;;5081872;28;20192;-92
2022/06/11 09:04:32;;;;;;;0.10;0.10;;;20.90;99.90;;;;;;5087816;28;20507;-92
2022/06/11 09:07:14;;;;;;;0.00;0.00;;;20.90;99.90;;;;;;5041719;28;20973;-90
2022/06/11 09:10:03;;;;;;;0.00;0.00;;;21.00;99.90;;;;;;5088381;28;20816;-91
2022/06/11 09:12:54;;;;;;;0.00;0.00;;;21.60;99.90;;;;;;5076027;28;20580;-89
2022/06/11 09:15:30;;;;;;;0.00;0.00;;;22.30;99.90;;;;;;5089096;28;20949;-94
2022/06/11 09:18:26;;;;;;;0.00;0.00;;;21.80;99.90;;;;;;5089837;28;20447;-88
2022/06/11 09:20:57;;;;;;;0.00;0.00;;;22.10;99.90;;;;;;5066595;28;20533;-88
2022/06/11 09:24:01;;;;;;;0.00;0.00;;;22.50;99.90;;;;;;5039698;28;20444;-87
2022/06/11 09:26:41;;;;;;;0.00;0.00;;;21.90;99.90;;;;;;5063843;28;20459;-86
2022/06/11 09:29:26;;;;;;;0.00;0.00;;;21.70;99.90;;;;;;5061144;28;20955;-86
2022/06/11 09:32:07;;;;;;;0.00;0.00;;;22.10;99.90;;;;;;5061222;28;20943;-88
2022/06/11 09:34:46;;;;;;;0.10;0.10;;;22.50;99.90;;;;;;5025419;28;20462;-86
2022/06/11 09:37:20;;;;;;;0.10;0.10;;;22.70;99.90;;;;;;5058916;28;21002;-85
2022/06/11 09:40:18;;;;;;;0.00;0.00;;;22.10;99.90;;;;;;5059746;28;20452;-86
2022/06/11 09:42:52;;;;;;;0.00;0.00;;;21.90;99.90;;;;;;5039926;28;20599;-89
2022/06/11 09:45:28;;;;;;;0.00;0.00;;;21.40;99.90;;;;;;5064561;28;20481;-87
2022/06/11 09:48:28;;;;;;;0.00;0.00;;;21.70;99.90;;;;;;5025896;28;20436;-89
2022/06/11 09:51:06;;;;;;;0.00;0.00;;;22.70;99.90;;;;;;5042670;28;20480;-88
2022/06/11 09:53:49;;;;;;;0.00;0.00;;;23.30;99.90;;;;;;5064198;28;20509;-89
2022/06/11 09:56:20;;;;;;;0.10;0.10;;;23.60;99.90;;;;;;5066979;28;20482;-86
2022/06/11 09:58:55;;;;;;;0.00;0.00;;;23.40;99.90;;;;;;5058864;28;20462;-86
2022/06/11 10:01:31;;;;;;;0.00;0.00;;;23.50;99.90;;;;;;5000871;28;20450;-88
2022/06/11 10:04:10;;;;;;;0.00;0.00;;;23.70;99.90;;;;;;5019457;28;20500;-90
2022/06/11 10:06:44;;;;;;;0.00;0.00;;;23.20;99.90;;;;;;5005392;28;20963;-89
2022/06/11 10:09:12;;;;;;;0.00;0.00;;;22.70;99.90;;;;;;5062047;28;20432;-88
2022/06/11 10:11:45;;;;;;;0.00;0.00;;;22.70;99.90;;;;;;5068827;28;20472;-91
2022/06/11 10:14:32;;;;;;;0.00;0.00;;;23.30;99.90;;;;;;5048537;28;20432;-90
2022/06/11 10:17:37;;;;;;;0.00;0.00;;;23.80;99.90;;;;;;5063683;28;20474;-90
2022/06/11 10:20:21;;;;;;;0.00;0.00;;;24.50;99.90;;;;;;5065716;28;20562;-89
2022/06/11 10:23:09;;;;;;;0.00;0.00;;;25.00;99.90;;;;;;5086575;28;20478;-88
2022/06/11 10:25:45;;;;;;;0.00;0.00;;;25.00;99.90;;;;;;5064542;28;21096;-90
2022/06/11 10:28:17;;;;;;;0.00;0.00;;;24.70;99.90;;;;;;5080138;28;20482;-88
2022/06/11 10:31:02;;;;;;;0.00;0.00;;;24.90;99.90;;;;;;5079370;28;20490;-88
2022/06/11 10:33:50;;;;;;;0.07;0.00;;;25.50;99.90;;;;;;5080183;28;20443;-90
2022/06/11 10:36:25;;;;;;;0.10;0.00;;;25.70;99.90;;;;;;5068702;28;20439;-87
2022/06/11 10:39:12;;;;;;;0.10;0.00;;;25.20;99.90;;;;;;5079339;28;20435;-89
2022/06/11 10:41:43;;;;;;;0.10;0.00;;;25.00;99.90;;;;;;5087153;28;20443;-88
2022/06/11 10:44:35;;;;;;;0.10;0.00;;;24.50;99.90;;;;;;5088170;28;20427;-87
2022/06/11 10:47:10;;;;;;;0.10;0.00;;;24.60;99.90;;;;;;5086448;28;20445;-86
2022/06/11 10:49:36;;;;;;;0.10;0.00;;;23.90;99.90;;;;;;5086736;28;20441;-88
2022/06/11 10:52:30;;;;;;;0.10;0.00;;;24.90;99.90;;;;;;5080826;28;21461;-88
2022/06/11 10:54:55;;;;;;;0.07;0.00;;;25.50;99.90;;;;;;5051838;28;20235;-87
2022/06/11 10:57:26;;;;;;;0.10;0.00;;;25.80;99.90;;;;;;5085391;28;20531;-89
2022/06/11 11:00:11;;;;;;;0.10;0.00;;;26.30;99.90;;;;;;5087776;28;20181;-87
2022/06/11 11:02:59;;;;;;;0.10;0.10;;;26.10;99.90;;;;;;5077866;28;20456;-87
2022/06/11 11:05:29;;;;;;;0.10;0.00;;;26.80;99.90;;;;;;5083930;28;20807;-86
2022/06/11 11:07:57;;;;;;;0.10;0.00;;;27.00;99.90;;;;;;5067743;28;20442;-86
2022/06/11 11:10:35;;;;;;;0.10;0.00;;;27.00;99.90;;;;;;5083392;28;20841;-86
2022/06/11 11:13:06;;;;;;;0.10;0.00;;;27.40;99.90;;;;;;5076336;28;21010;-86
2022/06/11 11:15:46;;;;;;;0.10;0.00;;;27.50;99.90;;;;;;5090068;28;20539;-86
2022/06/11 11:18:19;;;;;;;0.10;0.00;;;27.20;99.90;;;;;;5072726;28;20416;-87
2022/06/11 11:20:47;;;;;;;0.10;0.00;;;26.10;99.90;;;;;;5081111;28;20479;-87
2022/06/11 11:23:34;;;;;;;0.10;0.00;;;26.40;99.90;;;;;;5078116;28;20454;-86
2022/06/11 11:26:14;;;;;;;0.10;0.00;;;26.80;99.90;;;;;;5087894;28;20443;-85
2022/06/11 11:29:11;;;;;;;0.10;0.00;;;27.40;99.90;;;;;;5091874;28;20495;-86
2022/06/11 11:31:50;;;;;;;0.10;0.00;;;27.20;99.90;;;;;;5087397;28;20478;-87
2022/06/11 11:34:26;;;;;;;0.10;0.00;;;27.70;99.90;;;;;;5085652;28;20427;-87
2022/06/11 11:37:21;;;;;;;0.10;0.00;;;27.60;99.90;;;;;;5074091;28;20459;-86
2022/06/11 11:39:56;;;;;;;0.10;0.00;;;27.60;99.90;;;;;;5085038;28;20841;-86
2022/06/11 11:42:25;;;;;;;0.10;0.00;;;27.00;99.90;;;;;;5091060;28;20449;-87
2022/06/11 11:44:57;;;;;;;0.10;0.00;;;26.90;99.90;;;;;;5070437;28;20434;-86
2022/06/11 11:47:39;;;;;;;0.10;0.00;;;27.40;99.90;;;;;;5084130;28;20895;-85
2022/06/11 11:50:13;;;;;;;0.10;0.00;;;26.50;99.90;;;;;;5082703;28;20547;-86
2022/06/11 11:52:47;;;;;;;0.10;0.00;;;27.00;99.90;;;;;;5087038;28;20792;-87
2022/06/11 11:55:20;;;;;;;0.10;0.00;;;27.00;99.90;;;;;;5086899;28;20435;-84
2022/06/11 11:58:01;;;;;;;0.10;0.00;;;27.10;99.90;;;;;;5090101;28;20443;-86
2022/06/11 12:00:41;;;;;;;0.10;0.00;;;26.30;99.90;;;;;;5088755;28;20992;-85
2022/06/11 12:03:20;;;;;;;0.10;0.00;;;25.80;99.90;;;;;;5085385;28;20450;-86
2022/06/11 12:05:54;;;;;;;0.10;0.00;;;26.30;99.90;;;;;;5083544;28;20427;-88
2022/06/11 12:08:27;;;;;;;0.10;0.00;;;26.90;99.90;;;;;;5068888;28;20480;-89
2022/06/11 12:10:57;;;;;;;0.00;0.00;;;27.40;99.90;;;;;;5085933;28;20490;-86
2022/06/11 12:13:28;;;;;;;0.10;0.00;;;26.20;99.90;;;;;;5066305;28;20995;-85
2022/06/11 12:15:59;;;;;;;0.10;0.00;;;26.40;99.90;;;;;;5085781;28;20925;-86
2022/06/11 12:18:30;;;;;;;0.10;0.00;;;26.20;99.90;;;;;;5087912;28;20454;-87
2022/06/11 12:21:06;;;;;;;0.10;0.00;;;25.50;99.90;;;;;;5083777;28;22196;-86
2022/06/11 12:23:46;;;;;;;0.10;0.00;;;26.80;99.90;;;;;;5085808;28;20446;-85
2022/06/11 12:26:51;;;;;;;0.10;0.00;;;26.50;99.90;;;;;;5089457;28;20447;-86
2022/06/11 12:29:28;;;;;;;0.10;0.00;;;27.20;99.90;;;;;;4994068;28;22777;-86
2022/06/11 12:32:00;;;;;;;0.10;0.00;;;28.00;99.90;;;;;;5077904;28;20623;-86
2022/06/11 12:34:30;;;;;;;0.10;0.00;;;28.20;99.90;;;;;;5077842;28;20607;-86
2022/06/11 12:37:07;;;;;;;0.10;0.00;;;27.30;99.90;;;;;;5082733;28;20942;-84
2022/06/11 12:40:09;;;;;;;0.10;0.00;;;27.00;99.90;;;;;;5065068;28;20967;-88
2022/06/11 12:42:49;;;;;;;0.10;0.00;;;27.10;99.90;;;;;;5077274;28;20451;-86
2022/06/11 12:45:23;;;;;;;0.10;0.00;;;27.80;99.90;;;;;;5087072;28;20504;-85
2022/06/11 12:48:17;;;;;;;0.10;0.00;;;27.70;99.90;;;;;;5082255;28;20442;-87
2022/06/11 12:51:10;;;;;;;0.10;0.00;;;27.30;99.90;;;;;;5084962;28;20455;-88
2022/06/11 12:53:54;;;;;;;0.00;0.00;;;27.30;99.90;;;;;;5071572;28;20453;-86
2022/06/11 12:56:46;;;;;;;0.00;0.00;;;27.00;99.90;;;;;;5067437;28;20443;-88
2022/06/11 12:59:44;;;;;;;0.10;0.00;;;27.00;99.90;;;;;;5078741;28;20809;-88
2022/06/11 13:02:28;;;;;;;0.10;0.00;;;27.30;99.90;;;;;;5068344;28;20443;-88
2022/06/11 13:05:18;;;;;;;0.10;0.00;;;27.10;99.90;;;;;;5085956;28;20500;-88
2022/06/11 13:08:11;;;;;;;0.10;0.00;;;26.10;99.90;;;;;;5090331;28;20500;-86
2022/06/11 13:10:42;;;;;;;0.10;0.00;;;26.00;99.90;;;;;;5069412;28;20471;-86
2022/06/11 13:13:41;;;;;;;0.10;0.00;;;25.30;99.90;;;;;;5087174;28;20431;-88
2022/06/11 13:16:25;;;;;;;0.10;0.00;;;24.60;99.90;;;;;;5073205;28;20493;-88
2022/06/11 13:19:05;;;;;;;0.10;0.00;;;25.60;99.90;;;;;;5089433;28;20434;-87
2022/06/11 13:21:50;;;;;;;0.10;0.00;;;26.00;99.90;;;;;;5072267;28;20813;-86
2022/06/11 13:24:37;;;;;;;0.10;0.00;;;25.70;99.90;;;;;;5070318;28;20449;-89